Time,TemperatureF,DewpointF,PressureIn,WindDirection,WindDirectionDegrees,WindSpeedMPH,WindSpeedGustMPH,Humidity,HourlyPrecipIn,Conditions,Clouds,dailyrainin,SoftwareType,DateUTC
2013-01-17 00:05:00,12.0,3.8,29.62,NNE,22,0.0,0.0,69,0.00,,,-99.99,VWS V12.07,2013-01-17 06:05:00,
2013-01-17 00:10:00,12.0,4.1,29.62,NNE,22,0.0,1.1,70,0.00,,,-99.99,VWS V12.07,2013-01-17 06:10:00,
2013-01-17 00:20:00,11.8,3.6,29.62,NNE,22,3.1,3.1,69,0.00,,,-99.99,VWS V12.07,2013-01-17 06:20:00,
2013-01-17 00:25:00,11.6,3.4,29.63,NNE,22,3.5,5.5,69,0.00,,,-99.99,VWS V12.07,2013-01-17 06:25:00,
2013-01-17 00:30:00,11.4,3.2,29.63,NNE,22,4.2,5.5,69,0.00,,,-99.99,VWS V12.07,2013-01-17 06:30:00,
2013-01-17 00:35:00,11.1,2.9,29.63,NNE,22,1.5,4.2,69,0.00,,,-99.99,VWS V12.07,2013-01-17 06:35:00,
2013-01-17 00:40:00,11.1,2.9,29.64,NNE,22,0.0,4.2,69,0.00,,,-99.99,VWS V12.07,2013-01-17 06:40:00,
2013-01-17 00:45:00,10.9,2.7,29.64,NNE,22,0.0,4.2,69,0.00,,,-99.99,VWS V12.07,2013-01-17 06:45:00,
2013-01-17 00:50:00,10.5,2.4,29.65,NNE,22,0.0,0.0,69,0.00,,,-99.99,VWS V12.07,2013-01-17 06:50:00,
2013-01-17 00:55:00,10.2,2.1,29.65,NNE,22,0.0,2.6,69,0.00,,,-99.99,VWS V12.07,2013-01-17 06:55:00,
2013-01-17 01:00:00,10.2,2.1,29.66,ENE,68,0.0,2.6,69,0.00,,,-99.99,VWS V12.07,2013-01-17 07:00:00,
2013-01-17 01:05:00,10.0,1.9,29.65,NW,315,2.0,3.1,69,0.00,,,-99.99,VWS V12.07,2013-01-17 07:05:00,
2013-01-17 01:10:00,9.6,1.5,29.66,NE,45,1.5,3.1,69,0.00,,,-99.99,VWS V12.07,2013-01-17 07:10:00,
2013-01-17 01:15:00,9.5,1.4,29.66,West,270,1.7,4.6,69,0.00,,,-99.99,VWS V12.07,2013-01-17 07:15:00,
2013-01-17 01:20:00,9.3,1.2,29.67,NW,315,1.3,1.7,69,0.00,,,-99.99,VWS V12.07,2013-01-17 07:20:00,
2013-01-17 01:25:00,9.1,1.0,29.67,NW,315,0.0,1.7,69,0.00,,,-99.99,VWS V12.07,2013-01-17 07:25:00,
2013-01-17 01:30:00,9.1,1.0,29.67,West,270,3.3,3.3,69,0.00,,,-99.99,VWS V12.07,2013-01-17 07:30:00,
2013-01-17 01:35:00,8.9,0.8,29.67,West,270,2.0,3.3,69,0.00,,,-99.99,VWS V12.07,2013-01-17 07:35:00,
2013-01-17 01:40:00,8.9,0.8,29.68,NNW,338,3.8,3.8,69,0.00,,,-99.99,VWS V12.07,2013-01-17 07:40:00,
2013-01-17 01:45:00,8.9,0.8,29.68,NW,315,0.0,3.8,69,0.00,,,-99.99,VWS V12.07,2013-01-17 07:45:00,
2013-01-17 01:50:00,8.9,0.8,29.68,WSW,248,0.0,3.1,69,0.00,,,-99.99,VWS V12.07,2013-01-17 07:50:00,
2013-01-17 02:00:00,9.1,1.0,29.68,NW,315,2.9,3.1,69,0.00,,,-99.99,VWS V12.07,2013-01-17 08:00:00,
2013-01-17 02:05:00,9.1,1.0,29.69,West,270,0.0,2.9,69,0.00,,,-99.99,VWS V12.07,2013-01-17 08:05:00,
2013-01-17 02:10:00,9.1,1.0,29.69,WNW,292,0.0,3.1,69,0.00,,,-99.99,VWS V12.07,2013-01-17 08:10:00,
2013-01-17 02:15:00,9.1,1.0,29.69,NE,45,7.6,7.6,69,0.00,,,-99.99,VWS V12.07,2013-01-17 08:15:00,
2013-01-17 02:20:00,9.1,0.7,29.69,West,270,4.4,7.6,68,0.00,,,-99.99,VWS V12.07,2013-01-17 08:20:00,
2013-01-17 02:30:00,8.9,0.5,29.70,SSW,202,2.0,7.6,68,0.00,,,-99.99,VWS V12.07,2013-01-17 08:30:00,
2013-01-17 02:35:00,8.7,0.3,29.69,North,0,0.0,2.0,68,0.00,,,-99.99,VWS V12.07,2013-01-17 08:35:00,
2013-01-17 02:40:00,8.7,0.3,29.69,NW,315,0.6,4.9,68,0.00,,,-99.99,VWS V12.07,2013-01-17 08:40:00,
2013-01-17 02:45:00,8.6,0.2,29.69,North,0,0.0,4.9,68,0.00,,,-99.99,VWS V12.07,2013-01-17 08:45:00,
2013-01-17 02:50:00,8.4,0.0,29.70,North,0,5.1,5.1,68,0.00,,,-99.99,VWS V12.07,2013-01-17 08:50:00,
2013-01-17 02:55:00,8.4,0.0,29.70,NNW,338,0.0,5.1,68,0.00,,,-99.99,VWS V12.07,2013-01-17 08:55:00,
2013-01-17 03:00:00,8.4,0.0,29.70,NNW,338,0.0,5.1,68,0.00,,,-99.99,VWS V12.07,2013-01-17 09:00:00,
2013-01-17 03:05:00,8.2,-0.2,29.70,North,0,0.0,0.0,68,0.00,,,-99.99,VWS V12.07,2013-01-17 09:05:00,
2013-01-17 03:10:00,8.0,-0.4,29.70,NW,315,0.0,0.0,68,0.00,,,-99.99,VWS V12.07,2013-01-17 09:10:00,
2013-01-17 03:15:00,7.8,-0.6,29.70,NW,315,0.0,0.0,68,0.00,,,-99.99,VWS V12.07,2013-01-17 09:15:00,
2013-01-17 03:20:00,7.5,-0.8,29.70,NW,315,0.0,0.0,68,0.00,,,-99.99,VWS V12.07,2013-01-17 09:20:00,
2013-01-17 03:25:00,7.5,-0.8,29.70,NW,315,0.0,0.0,68,0.00,,,-99.99,VWS V12.07,2013-01-17 09:25:00,
2013-01-17 03:30:00,7.3,-1.0,29.70,NW,315,0.2,0.2,68,0.00,,,-99.99,VWS V12.07,2013-01-17 09:30:00,
2013-01-17 03:35:00,6.9,-1.4,29.70,NW,315,0.0,0.2,68,0.00,,,-99.99,VWS V12.07,2013-01-17 09:35:00,
2013-01-17 03:40:00,6.6,-1.7,29.70,NW,315,0.0,0.2,68,0.00,,,-99.99,VWS V12.07,2013-01-17 09:40:00,
2013-01-17 03:45:00,6.6,-1.7,29.70,NW,315,0.0,0.2,68,0.00,,,-99.99,VWS V12.07,2013-01-17 09:45:00,
2013-01-17 03:50:00,6.0,-2.0,29.70,NW,315,0.0,0.0,69,0.00,,,-99.99,VWS V12.07,2013-01-17 09:50:00,
2013-01-17 03:55:00,6.0,-2.0,29.70,NW,315,0.0,0.0,69,0.00,,,-99.99,VWS V12.07,2013-01-17 09:55:00,
2013-01-17 04:00:00,5.9,-2.1,29.70,NW,315,0.0,0.0,69,0.00,,,-99.99,VWS V12.07,2013-01-17 10:00:00,
2013-01-17 04:05:00,5.5,-2.5,29.70,WNW,292,0.0,0.0,69,0.00,,,-99.99,VWS V12.07,2013-01-17 10:05:00,
2013-01-17 04:10:00,5.5,-2.5,29.70,West,270,0.0,0.0,69,0.00,,,-99.99,VWS V12.07,2013-01-17 10:10:00,
2013-01-17 04:15:00,5.3,-2.6,29.70,West,270,0.0,3.5,69,0.00,,,-99.99,VWS V12.07,2013-01-17 10:15:00,
2013-01-17 04:20:00,5.1,-2.8,29.70,WNW,292,0.0,0.0,69,0.00,,,-99.99,VWS V12.07,2013-01-17 10:20:00,
2013-01-17 04:25:00,4.8,-3.1,29.70,WNW,292,0.0,0.0,69,0.00,,,-99.99,VWS V12.07,2013-01-17 10:25:00,
2013-01-17 04:30:00,4.8,-3.1,29.70,WNW,292,0.0,0.0,69,0.00,,,-99.99,VWS V12.07,2013-01-17 10:30:00,
2013-01-17 04:35:00,4.6,-3.0,29.70,WNW,292,0.0,0.0,70,0.00,,,-99.99,VWS V12.07,2013-01-17 10:35:00,
2013-01-17 04:40:00,4.4,-3.2,29.70,WNW,292,0.0,0.0,70,0.00,,,-99.99,VWS V12.07,2013-01-17 10:40:00,
2013-01-17 04:45:00,4.2,-3.4,29.70,WNW,292,0.0,0.0,70,0.00,,,-99.99,VWS V12.07,2013-01-17 10:45:00,
2013-01-17 04:50:00,4.2,-3.4,29.71,WNW,292,0.0,0.0,70,0.00,,,-99.99,VWS V12.07,2013-01-17 10:50:00,
2013-01-17 05:00:00,3.9,-3.7,29.70,WNW,292,0.0,0.0,70,0.00,,,-99.99,VWS V12.07,2013-01-17 11:00:00,
2013-01-17 05:05:00,3.9,-3.7,29.70,WNW,292,0.0,0.0,70,0.00,,,-99.99,VWS V12.07,2013-01-17 11:05:00,
2013-01-17 05:10:00,3.9,-3.7,29.70,WNW,292,0.0,0.0,70,0.00,,,-99.99,VWS V12.07,2013-01-17 11:10:00,
2013-01-17 05:15:00,3.9,-3.4,29.70,WNW,292,0.0,0.0,71,0.00,,,-99.99,VWS V12.07,2013-01-17 11:15:00,
2013-01-17 05:20:00,3.9,-3.4,29.70,NNW,338,0.0,0.0,71,0.00,,,-99.99,VWS V12.07,2013-01-17 11:20:00,
2013-01-17 05:25:00,3.9,-3.4,29.70,NW,315,0.0,0.0,71,0.00,,,-99.99,VWS V12.07,2013-01-17 11:25:00,
2013-01-17 05:30:00,3.9,-3.1,29.70,NNW,338,0.0,2.2,72,0.00,,,-99.99,VWS V12.07,2013-01-17 11:30:00,
2013-01-17 05:35:00,3.7,-3.3,29.71,WSW,248,2.6,2.6,72,0.00,,,-99.99,VWS V12.07,2013-01-17 11:35:00,
2013-01-17 05:40:00,3.7,-3.3,29.71,West,270,0.0,2.6,72,0.00,,,-99.99,VWS V12.07,2013-01-17 11:40:00,
2013-01-17 05:45:00,3.5,-3.5,29.71,WSW,248,2.4,2.6,72,0.00,,,-99.99,VWS V12.07,2013-01-17 11:45:00,
2013-01-17 05:50:00,3.3,-3.7,29.71,NW,315,0.0,2.4,72,0.00,,,-99.99,VWS V12.07,2013-01-17 11:50:00,
2013-01-17 05:55:00,3.3,-3.7,29.71,NW,315,0.0,2.4,72,0.00,,,-99.99,VWS V12.07,2013-01-17 11:55:00,
2013-01-17 06:00:00,3.0,-4.0,29.72,NNW,338,0.0,2.4,72,0.00,,,-99.99,VWS V12.07,2013-01-17 12:00:00,
2013-01-17 06:10:00,2.8,-3.9,29.72,WSW,248,0.0,4.9,73,0.00,,,-99.99,VWS V12.07,2013-01-17 12:10:00,
2013-01-17 06:15:00,2.4,-4.3,29.72,WSW,248,0.0,4.9,73,0.00,,,-99.99,VWS V12.07,2013-01-17 12:15:00,
2013-01-17 06:20:00,2.3,-4.4,29.72,WSW,248,0.0,0.0,73,0.00,,,-99.99,VWS V12.07,2013-01-17 12:20:00,
2013-01-17 06:25:00,2.1,-4.6,29.73,WSW,248,0.0,0.0,73,0.00,,,-99.99,VWS V12.07,2013-01-17 12:25:00,
2013-01-17 06:30:00,1.9,-4.7,29.73,West,270,1.5,1.5,73,0.00,,,-99.99,VWS V12.07,2013-01-17 12:30:00,
2013-01-17 06:35:00,1.9,-4.7,29.73,WSW,248,0.0,1.5,73,0.00,,,-99.99,VWS V12.07,2013-01-17 12:35:00,
2013-01-17 06:40:00,1.7,-4.9,29.73,South,180,0.0,1.5,73,0.00,,,-99.99,VWS V12.07,2013-01-17 12:40:00,
2013-01-17 06:45:00,1.5,-5.1,29.73,SSW,202,0.0,1.5,73,0.00,,,-99.99,VWS V12.07,2013-01-17 12:45:00,
2013-01-17 06:55:00,1.2,-5.4,29.74,WNW,292,0.0,3.8,73,0.00,,,-99.99,VWS V12.07,2013-01-17 12:55:00,
2013-01-17 07:00:00,1.2,-5.4,29.74,WNW,292,0.0,3.8,73,0.00,,,-99.99,VWS V12.07,2013-01-17 13:00:00,
2013-01-17 07:05:00,1.0,-5.6,29.75,SW,225,0.0,0.0,73,0.00,,,-99.99,VWS V12.07,2013-01-17 13:05:00,
2013-01-17 07:10:00,0.8,-5.8,29.75,West,270,0.0,1.7,73,0.00,,,-99.99,VWS V12.07,2013-01-17 13:10:00,
2013-01-17 07:15:00,0.6,-6.0,29.76,West,270,0.0,1.7,73,0.00,,,-99.99,VWS V12.07,2013-01-17 13:15:00,
2013-01-17 07:20:00,0.6,-6.0,29.76,West,270,0.0,0.0,73,0.00,,,-99.99,VWS V12.07,2013-01-17 13:20:00,
2013-01-17 07:25:00,0.5,-6.1,29.76,NW,315,2.4,2.4,73,0.00,,,-99.99,VWS V12.07,2013-01-17 13:25:00,
2013-01-17 07:30:00,0.3,-6.3,29.76,West,270,0.0,2.4,73,0.00,,,-99.99,VWS V12.07,2013-01-17 13:30:00,
2013-01-17 07:35:00,0.3,-6.3,29.77,West,270,0.0,0.0,73,0.00,,,-99.99,VWS V12.07,2013-01-17 13:35:00,
2013-01-17 07:40:00,0.1,-6.2,29.77,NW,315,0.0,0.0,74,0.00,,,-99.99,VWS V12.07,2013-01-17 13:40:00,
2013-01-17 07:45:00,0.1,-6.2,29.77,WSW,248,0.6,0.6,74,0.00,,,-99.99,VWS V12.07,2013-01-17 13:45:00,
2013-01-17 07:50:00,0.1,-6.2,29.77,SW,225,1.3,1.3,74,0.00,,,-99.99,VWS V12.07,2013-01-17 13:50:00,
2013-01-17 07:55:00,-0.2,-6.8,29.77,WNW,292,0.0,1.3,73,0.00,,,-99.99,VWS V12.07,2013-01-17 13:55:00,
2013-01-17 08:00:00,-0.2,-6.8,29.77,West,270,1.1,1.3,73,0.00,,,-99.99,VWS V12.07,2013-01-17 14:00:00,
2013-01-17 08:05:00,-0.5,-7.1,29.77,West,270,2.4,2.4,73,0.00,,,-99.99,VWS V12.07,2013-01-17 14:05:00,
2013-01-17 08:10:00,-0.5,-7.1,29.78,WNW,292,0.0,4.2,73,0.00,,,-99.99,VWS V12.07,2013-01-17 14:10:00,
2013-01-17 08:15:00,-0.5,-6.8,29.78,West,270,0.0,4.2,74,0.00,,,-99.99,VWS V12.07,2013-01-17 14:15:00,
2013-01-17 08:20:00,-0.5,-6.8,29.78,West,270,0.0,0.0,74,0.00,,,-99.99,VWS V12.07,2013-01-17 14:20:00,
2013-01-17 08:25:00,-0.5,-6.8,29.78,NW,315,0.0,2.9,74,0.00,,,-99.99,VWS V12.07,2013-01-17 14:25:00,
2013-01-17 08:30:00,-0.5,-6.8,29.78,WSW,248,5.3,5.3,74,0.00,,,-99.99,VWS V12.07,2013-01-17 14:30:00,
2013-01-17 08:35:00,-0.5,-6.8,29.79,WSW,248,5.3,5.3,74,0.00,,,-99.99,VWS V12.07,2013-01-17 14:35:00,
2013-01-17 08:40:00,-0.4,-6.7,29.79,SW,225,0.0,5.3,74,0.00,,,-99.99,VWS V12.07,2013-01-17 14:40:00,
2013-01-17 08:45:00,-0.2,-6.5,29.79,SW,225,0.0,5.3,74,0.00,,,-99.99,VWS V12.07,2013-01-17 14:45:00,
2013-01-17 08:50:00,-0.2,-6.5,29.79,WNW,292,1.3,1.3,74,0.00,,,-99.99,VWS V12.07,2013-01-17 14:50:00,
2013-01-17 08:55:00,-0.2,-6.5,29.79,WNW,292,1.3,1.3,74,0.00,,,-99.99,VWS V12.07,2013-01-17 14:55:00,
2013-01-17 09:00:00,0.1,-6.2,29.79,SW,225,2.2,2.2,74,0.00,,,-99.99,VWS V12.07,2013-01-17 15:00:00,
2013-01-17 09:05:00,0.3,-6.0,29.78,SW,225,2.2,2.2,74,0.00,,,-99.99,VWS V12.07,2013-01-17 15:05:00,
2013-01-17 09:10:00,0.3,-6.0,29.79,SW,225,2.2,2.2,74,0.00,,,-99.99,VWS V12.07,2013-01-17 15:10:00,
2013-01-17 09:15:00,1.0,-5.3,29.79,SW,225,2.2,2.2,74,0.00,,,-99.99,VWS V12.07,2013-01-17 15:15:00,
2013-01-17 09:20:00,1.2,-5.4,29.79,NW,315,0.0,2.2,73,0.00,,,-99.99,VWS V12.07,2013-01-17 15:20:00,
2013-01-17 09:25:00,1.2,-5.4,29.79,NW,315,0.0,2.2,73,0.00,,,-99.99,VWS V12.07,2013-01-17 15:25:00,
2013-01-17 09:30:00,1.5,-5.1,29.80,NW,315,0.0,2.2,73,0.00,,,-99.99,VWS V12.07,2013-01-17 15:30:00,
2013-01-17 09:35:00,1.7,-4.9,29.80,NW,315,0.0,0.0,73,0.00,,,-99.99,VWS V12.07,2013-01-17 15:35:00,
2013-01-17 09:40:00,1.9,-5.0,29.80,West,270,0.0,2.4,72,0.00,,,-99.99,VWS V12.07,2013-01-17 15:40:00,
2013-01-17 09:45:00,1.9,-5.0,29.80,North,0,4.0,4.0,72,0.00,,,-99.99,VWS V12.07,2013-01-17 15:45:00,
2013-01-17 09:50:00,1.9,-5.0,29.80,SSW,202,0.0,4.0,72,0.00,,,-99.99,VWS V12.07,2013-01-17 15:50:00,
2013-01-17 09:55:00,1.9,-5.0,29.80,WNW,292,4.0,4.0,72,0.00,,,-99.99,VWS V12.07,2013-01-17 15:55:00,
2013-01-17 10:00:00,2.1,-4.8,29.81,West,270,5.1,5.1,72,0.00,,,-99.99,VWS V12.07,2013-01-17 16:00:00,
2013-01-17 10:05:00,2.3,-4.6,29.80,NE,45,2.0,5.1,72,0.00,,,-99.99,VWS V12.07,2013-01-17 16:05:00,
2013-01-17 10:10:00,2.4,-4.8,29.81,WNW,292,1.1,5.1,71,0.00,,,-99.99,VWS V12.07,2013-01-17 16:10:00,
2013-01-17 10:15:00,2.8,-4.4,29.81,WSW,248,2.6,5.1,71,0.00,,,-99.99,VWS V12.07,2013-01-17 16:15:00,
2013-01-17 10:20:00,2.8,-4.4,29.81,SW,225,4.9,4.9,71,0.00,,,-99.99,VWS V12.07,2013-01-17 16:20:00,
2013-01-17 10:25:00,3.0,-4.3,29.81,NNW,338,4.4,4.9,71,0.00,,,-99.99,VWS V12.07,2013-01-17 16:25:00,
2013-01-17 10:30:00,3.3,-4.0,29.81,WSW,248,2.6,4.9,71,0.00,,,-99.99,VWS V12.07,2013-01-17 16:30:00,
2013-01-17 10:40:00,3.3,-4.3,29.81,WSW,248,3.3,3.3,70,0.00,,,-99.99,VWS V12.07,2013-01-17 16:40:00,
2013-01-17 10:45:00,3.3,-4.3,29.81,WNW,292,0.0,3.3,70,0.00,,,-99.99,VWS V12.07,2013-01-17 16:45:00,
2013-01-17 10:55:00,3.7,-4.2,29.80,NNW,338,0.0,2.6,69,0.00,,,-99.99,VWS V12.07,2013-01-17 16:55:00,
2013-01-17 11:05:00,4.1,-3.8,29.79,WSW,248,2.4,2.4,69,0.00,,,-99.99,VWS V12.07,2013-01-17 17:05:00,
2013-01-17 11:10:00,4.6,-3.3,29.79,WNW,292,3.1,3.1,69,0.00,,,-99.99,VWS V12.07,2013-01-17 17:10:00,
2013-01-17 11:15:00,4.8,-3.1,29.78,WSW,248,0.0,3.1,69,0.00,,,-99.99,VWS V12.07,2013-01-17 17:15:00,
2013-01-17 11:20:00,5.1,-2.8,29.78,SW,225,2.0,2.6,69,0.00,,,-99.99,VWS V12.07,2013-01-17 17:20:00,
2013-01-17 11:25:00,5.9,-2.1,29.78,NNE,22,0.0,2.6,69,0.00,,,-99.99,VWS V12.07,2013-01-17 17:25:00,
2013-01-17 11:30:00,6.2,-1.8,29.78,West,270,0.0,2.6,69,0.00,,,-99.99,VWS V12.07,2013-01-17 17:30:00,
2013-01-17 11:35:00,6.4,-1.9,29.78,West,270,0.0,0.0,68,0.00,,,-99.99,VWS V12.07,2013-01-17 17:35:00,
2013-01-17 11:40:00,6.9,-1.4,29.78,West,270,0.0,0.0,68,0.00,,,-99.99,VWS V12.07,2013-01-17 17:40:00,
2013-01-17 11:45:00,7.3,-1.3,29.79,SSW,202,7.3,7.3,67,0.00,,,-99.99,VWS V12.07,2013-01-17 17:45:00,
2013-01-17 11:50:00,7.5,-1.5,29.79,WSW,248,1.7,7.3,66,0.00,,,-99.99,VWS V12.07,2013-01-17 17:50:00,
2013-01-17 11:55:00,7.3,-1.7,29.79,West,270,1.1,7.3,66,0.00,,,-99.99,VWS V12.07,2013-01-17 17:55:00,
2013-01-17 12:05:00,7.1,-2.2,29.78,WSW,248,2.0,3.8,65,0.00,,,-99.99,VWS V12.07,2013-01-17 18:05:00,
2013-01-17 12:10:00,7.1,-2.2,29.78,NNW,338,0.8,3.8,65,0.00,,,-99.99,VWS V12.07,2013-01-17 18:10:00,
2013-01-17 12:15:00,7.3,-2.0,29.79,North,0,3.8,4.0,65,0.00,,,-99.99,VWS V12.07,2013-01-17 18:15:00,
2013-01-17 12:20:00,7.5,-1.8,29.78,SW,225,0.0,3.8,65,0.00,,,-99.99,VWS V12.07,2013-01-17 18:20:00,
2013-01-17 12:25:00,7.7,-1.6,29.78,West,270,3.8,4.6,65,0.00,,,-99.99,VWS V12.07,2013-01-17 18:25:00,
2013-01-17 12:30:00,7.8,-1.5,29.78,SSW,202,5.3,5.3,65,0.00,,,-99.99,VWS V12.07,2013-01-17 18:30:00,
2013-01-17 12:40:00,8.0,-1.6,29.78,WNW,292,4.6,6.0,64,0.00,,,-99.99,VWS V12.07,2013-01-17 18:40:00,
2013-01-17 12:50:00,7.8,-1.8,29.79,WNW,292,1.7,3.3,64,0.00,,,-99.99,VWS V12.07,2013-01-17 18:50:00,
2013-01-17 12:55:00,8.0,-1.6,29.78,NNW,338,0.0,3.3,64,0.00,,,-99.99,VWS V12.07,2013-01-17 18:55:00,
2013-01-17 13:00:00,7.8,-1.8,29.78,WNW,292,0.0,4.6,64,0.00,,,-99.99,VWS V12.07,2013-01-17 19:00:00,
2013-01-17 13:05:00,8.0,-1.6,29.78,NW,315,6.9,6.9,64,0.00,,,-99.99,VWS V12.07,2013-01-17 19:05:00,